createdAt,value
2022-12-31T00:00:08.670Z,77.42
2022-12-31T00:02:36.101Z,77.38
2022-12-31T00:05:03.003Z,77.89
2022-12-31T00:07:29.436Z,77.75
2022-12-31T00:09:55.940Z,78.07
2022-12-31T00:12:22.428Z,77.99
2022-12-31T00:14:48.920Z,78.17
2022-12-31T00:17:15.378Z,77.48
2022-12-31T00:19:41.839Z,77.64
2022-12-31T00:22:08.358Z,77.87
2022-12-31T00:24:35.896Z,77.98
2022-12-31T00:27:02.572Z,77.92
2022-12-31T00:29:29.036Z,78.37
2022-12-31T00:31:55.586Z,77.92
2022-12-31T00:34:22.202Z,77.88
2022-12-31T00:36:48.943Z,77.75
2022-12-31T00:39:15.553Z,77.81
2022-12-31T00:41:43.921Z,78.18
2022-12-31T00:44:14.307Z,78.12
2022-12-31T00:49:06.678Z,78.89
2022-12-31T00:51:33.574Z,78.93
2022-12-31T00:54:00.780Z,78.24
2022-12-31T00:56:30.596Z,77.56
2022-12-31T00:58:58.961Z,78.17
2022-12-31T01:01:35.591Z,78.06
2022-12-31T01:04:08.907Z,78.13
2022-12-31T01:06:35.595Z,78.38
2022-12-31T01:09:02.322Z,78.54
2022-12-31T01:11:29.511Z,77.99
2022-12-31T01:14:16.272Z,77.96
2022-12-31T01:16:52.376Z,78.71
2022-12-31T01:19:27.382Z,78.21
2022-12-31T01:21:55.644Z,78.35
2022-12-31T01:24:22.978Z,78.32
2022-12-31T01:26:51.147Z,78.25
2022-12-31T01:29:17.895Z,78.35
2022-12-31T01:31:44.433Z,78.89
2022-12-31T01:34:11.045Z,78.97
2022-12-31T01:36:38.634Z,78.27
2022-12-31T01:39:08.118Z,78.54
2022-12-31T01:41:42.699Z,78.61
2022-12-31T01:44:11.809Z,78.76
2022-12-31T01:46:53.289Z,78.65
2022-12-31T01:49:29.841Z,78.69
2022-12-31T01:52:07.365Z,80.55
2022-12-31T01:54:43.095Z,79.34
2022-12-31T01:57:11.712Z,79.03
2022-12-31T01:59:38.619Z,78.66
2022-12-31T02:02:05.896Z,78.81
2022-12-31T02:04:32.595Z,78.75
2022-12-31T02:07:10.203Z,78.16
2022-12-31T02:09:40.172Z,78.42
2022-12-31T02:12:09.218Z,78.54
2022-12-31T02:14:49.949Z,78.17
2022-12-31T02:17:45.768Z,78.54
2022-12-31T02:20:54.519Z,78.94
2022-12-31T02:24:19.459Z,79.17
2022-12-31T02:27:03.209Z,79.05
2022-12-31T02:29:58.420Z,79.20
2022-12-31T02:32:31.744Z,78.91
2022-12-31T02:35:25.802Z,78.71
2022-12-31T02:38:01.455Z,78.92
2022-12-31T02:40:28.740Z,79.04
2022-12-31T02:42:55.858Z,79.21
2022-12-31T02:45:31.663Z,78.61
2022-12-31T02:48:16.165Z,78.37
2022-12-31T02:51:01.951Z,78.38
2022-12-31T02:54:01.107Z,78.43
2022-12-31T02:56:51.779Z,78.41
2022-12-31T02:59:56.471Z,78.14
2022-12-31T03:02:28.032Z,78.07
2022-12-31T03:04:57.217Z,78.23
2022-12-31T03:07:28.419Z,77.97
2022-12-31T03:09:55.635Z,77.80
2022-12-31T03:12:49.884Z,77.88
2022-12-31T03:15:22.751Z,78.24
2022-12-31T03:18:11.799Z,77.78
2022-12-31T03:21:04.310Z,78.02
2022-12-31T03:23:41.623Z,77.86
2022-12-31T03:26:11.671Z,77.91
2022-12-31T03:28:41.860Z,77.85
2022-12-31T03:31:09.735Z,77.97
2022-12-31T03:33:40.219Z,77.85
2022-12-31T03:36:11.514Z,77.99
2022-12-31T03:38:38.591Z,78.18
2022-12-31T03:41:05.602Z,77.83
2022-12-31T03:43:32.191Z,77.63
2022-12-31T03:46:01.151Z,77.91
2022-12-31T03:48:27.645Z,77.78
2022-12-31T03:50:54.168Z,77.63
2022-12-31T03:53:20.615Z,78.25
2022-12-31T03:55:52.584Z,78.83
2022-12-31T03:58:19.097Z,79.25
2022-12-31T04:00:45.619Z,79.45
2022-12-31T04:03:12.188Z,78.96
2022-12-31T04:05:38.961Z,79.17
2022-12-31T04:08:05.490Z,78.75
2022-12-31T04:10:31.982Z,78.25
2022-12-31T04:13:00.233Z,78.22
2022-12-31T04:15:26.734Z,78.20
2022-12-31T04:17:53.196Z,78.20
2022-12-31T04:20:19.716Z,78.07
2022-12-31T04:22:46.180Z,78.23
2022-12-31T04:25:12.942Z,78.05
2022-12-31T04:27:41.322Z,77.81
2022-12-31T04:30:09.023Z,77.93
2022-12-31T04:32:35.560Z,78.26
2022-12-31T04:35:02.039Z,78.48
2022-12-31T04:37:28.573Z,78.18
2022-12-31T04:39:58.973Z,78.12
2022-12-31T04:42:28.453Z,78.37
2022-12-31T04:44:54.889Z,78.23
2022-12-31T04:47:23.829Z,78.04
2022-12-31T04:49:50.631Z,77.81
2022-12-31T04:52:17.171Z,77.88
2022-12-31T04:54:43.828Z,77.77
2022-12-31T04:57:10.358Z,77.67
2022-12-31T04:59:36.854Z,77.78
2022-12-31T05:02:03.596Z,77.72
2022-12-31T05:04:30.269Z,77.57
2022-12-31T05:06:56.897Z,77.60
2022-12-31T05:09:24.175Z,77.69
2022-12-31T05:11:50.934Z,77.77
2022-12-31T05:14:17.519Z,77.21
2022-12-31T05:16:44.090Z,77.18
2022-12-31T05:19:10.649Z,77.42
2022-12-31T05:21:37.137Z,77.38
2022-12-31T05:24:03.827Z,77.22
2022-12-31T05:26:30.482Z,76.84
2022-12-31T05:28:57.015Z,76.47
2022-12-31T05:31:23.540Z,76.29
2022-12-31T05:33:50.043Z,76.46
2022-12-31T05:36:16.563Z,76.27
2022-12-31T05:38:43.027Z,76.15
2022-12-31T05:41:11.181Z,75.80
2022-12-31T05:43:39.754Z,76.02
2022-12-31T05:46:06.340Z,75.59
2022-12-31T05:48:33.034Z,75.65
2022-12-31T05:50:59.645Z,75.33
2022-12-31T05:53:26.158Z,75.79
2022-12-31T05:55:52.723Z,75.93
2022-12-31T05:58:19.278Z,75.72
2022-12-31T06:00:46.127Z,75.18
2022-12-31T06:03:13.375Z,75.16
2022-12-31T06:05:42.839Z,75.34
2022-12-31T06:08:11.298Z,75.34
2022-12-31T06:10:38.294Z,75.93
2022-12-31T06:13:04.982Z,75.64
2022-12-31T06:15:31.737Z,75.43
2022-12-31T06:17:58.305Z,75.31
2022-12-31T06:20:24.787Z,74.93
2022-12-31T06:22:51.273Z,74.65
2022-12-31T06:25:17.750Z,74.80
2022-12-31T06:27:44.265Z,74.57
2022-12-31T06:30:11.854Z,74.49
2022-12-31T06:32:39.307Z,74.66
2022-12-31T06:35:06.949Z,74.69
2022-12-31T06:37:33.473Z,74.54
2022-12-31T06:40:00.644Z,74.53
2022-12-31T06:42:31.407Z,74.27
2022-12-31T06:44:59.122Z,74.38
2022-12-31T06:47:26.243Z,74.49
2022-12-31T06:49:53.185Z,74.51
2022-12-31T06:52:20.498Z,74.53
2022-12-31T06:54:48.076Z,74.27
2022-12-31T06:57:15.664Z,74.39
2022-12-31T06:59:44.711Z,74.62
2022-12-31T07:02:21.638Z,74.21
2022-12-31T07:05:26.723Z,73.78
2022-12-31T07:08:31.622Z,74.09
2022-12-31T07:11:18.614Z,74.01
2022-12-31T07:14:05.475Z,74.33
2022-12-31T07:16:56.176Z,74.18
2022-12-31T07:19:38.932Z,74.15
2022-12-31T07:22:13.219Z,74.60
2022-12-31T07:24:40.543Z,74.16
2022-12-31T07:27:49.946Z,73.26
2022-12-31T07:30:28.146Z,73.80
2022-12-31T07:33:15.724Z,73.24
2022-12-31T07:36:05.379Z,72.83
2022-12-31T07:38:46.810Z,73.47
2022-12-31T07:41:22.153Z,73.12
2022-12-31T07:44:08.461Z,73.07
2022-12-31T07:46:57.435Z,72.66
2022-12-31T07:49:27.117Z,72.89
2022-12-31T07:51:54.836Z,72.74
2022-12-31T07:54:21.681Z,72.66
2022-12-31T07:56:50.677Z,71.88
2022-12-31T07:59:54.331Z,72.29
2022-12-31T08:03:17.178Z,72.49
2022-12-31T08:06:12.488Z,72.62
2022-12-31T08:08:58.686Z,72.83
2022-12-31T08:11:37.908Z,73.13
2022-12-31T08:14:11.728Z,73.48
2022-12-31T08:16:38.861Z,73.23
2022-12-31T08:19:06.183Z,73.10
2022-12-31T08:22:17.554Z,72.63
2022-12-31T08:25:02.075Z,72.52
2022-12-31T08:28:06.921Z,72.50
2022-12-31T08:30:38.504Z,72.21
2022-12-31T08:33:18.359Z,72.19
2022-12-31T08:36:33.191Z,71.99
2022-12-31T08:39:33.541Z,71.97
2022-12-31T08:42:05.659Z,72.27
2022-12-31T08:44:55.684Z,71.88
2022-12-31T08:48:08.416Z,71.40
2022-12-31T08:50:35.275Z,71.78
2022-12-31T08:53:02.352Z,71.93
2022-12-31T08:55:29.505Z,71.64
2022-12-31T08:58:45.267Z,70.79
2022-12-31T09:01:15.504Z,71.13
2022-12-31T09:04:22.501Z,70.19
2022-12-31T09:06:59.183Z,70.75
2022-12-31T09:09:57.782Z,70.68
2022-12-31T09:12:42.150Z,70.05
2022-12-31T09:15:21.122Z,71.01
2022-12-31T09:17:50.815Z,70.74
2022-12-31T09:20:41.774Z,69.27
2022-12-31T09:23:11.160Z,69.32
2022-12-31T09:25:55.772Z,69.25
2022-12-31T09:28:59.619Z,69.47
2022-12-31T09:31:40.339Z,69.05
2022-12-31T09:34:17.525Z,69.70
2022-12-31T09:36:50.694Z,69.77
2022-12-31T09:39:40.956Z,69.90
2022-12-31T09:42:35.168Z,70.04
2022-12-31T09:45:52.499Z,70.11
2022-12-31T09:48:50.589Z,70.31
2022-12-31T09:51:44.814Z,70.31
2022-12-31T09:55:05.107Z,69.96
2022-12-31T09:58:02.518Z,70.22
2022-12-31T10:00:43.426Z,70.21
2022-12-31T10:03:50.225Z,69.28
2022-12-31T10:06:23.100Z,70.37
2022-12-31T10:09:36.835Z,69.68
2022-12-31T10:12:53.502Z,69.27
2022-12-31T10:15:43.583Z,69.70
2022-12-31T10:18:50.155Z,69.26
2022-12-31T10:21:28.066Z,69.77
2022-12-31T10:24:47.452Z,69.80
2022-12-31T10:27:27.820Z,69.56
2022-12-31T10:30:20.431Z,68.35
2022-12-31T10:33:18.042Z,68.39
2022-12-31T10:35:59.548Z,68.91
2022-12-31T10:38:43.728Z,68.16
2022-12-31T10:41:58.198Z,68.43
2022-12-31T10:44:52.895Z,68.84
2022-12-31T10:47:47.419Z,68.21
2022-12-31T10:51:11.028Z,68.35
2022-12-31T10:54:26.687Z,69.20
2022-12-31T10:57:26.421Z,68.67
2022-12-31T11:00:38.875Z,68.36
2022-12-31T11:03:33.898Z,67.99
2022-12-31T11:06:40.505Z,68.59
2022-12-31T11:09:34.978Z,68.88
2022-12-31T11:12:38.789Z,68.37
2022-12-31T11:15:38.303Z,68.53
2022-12-31T11:18:30.411Z,68.59
2022-12-31T11:21:28.171Z,67.75
2022-12-31T11:24:07.316Z,69.00
2022-12-31T11:26:45.325Z,68.72
2022-12-31T11:29:28.691Z,68.10
2022-12-31T11:32:22.538Z,68.00
2022-12-31T11:35:23.184Z,67.36
2022-12-31T11:38:29.927Z,68.03
2022-12-31T11:41:07.911Z,67.82
2022-12-31T11:43:49.507Z,67.66
2022-12-31T11:46:50.980Z,66.96
2022-12-31T11:49:53.625Z,67.37
2022-12-31T11:52:54.303Z,66.84
2022-12-31T11:56:05.542Z,66.94
2022-12-31T11:58:32.204Z,67.16
2022-12-31T12:01:17.320Z,66.54
2022-12-31T12:03:45.483Z,66.77
2022-12-31T12:06:16.704Z,66.64
2022-12-31T12:08:45.720Z,66.73
2022-12-31T12:11:26.285Z,65.86
2022-12-31T12:13:53.110Z,66.47
2022-12-31T12:16:23.596Z,66.45
2022-12-31T12:19:07.277Z,66.37
2022-12-31T12:21:34.634Z,66.87
2022-12-31T12:24:26.853Z,66.43
2022-12-31T12:26:53.631Z,66.36
2022-12-31T12:29:35.131Z,66.32
2022-12-31T12:32:03.386Z,66.49
2022-12-31T12:34:39.479Z,66.31
2022-12-31T12:37:35.277Z,65.62
2022-12-31T12:40:19.027Z,65.88
2022-12-31T12:42:52.348Z,66.07
2022-12-31T12:45:25.001Z,65.97
2022-12-31T12:48:07.550Z,65.12
2022-12-31T12:50:47.097Z,65.43
2022-12-31T12:53:43.251Z,65.18
2022-12-31T12:56:37.046Z,65.84
2022-12-31T12:59:57.521Z,65.61
2022-12-31T13:02:48.618Z,65.56
2022-12-31T13:05:49.684Z,65.95
2022-12-31T13:08:43.301Z,65.52
2022-12-31T13:11:34.331Z,65.03
2022-12-31T13:14:15.720Z,65.08
2022-12-31T13:17:28.205Z,64.83
2022-12-31T13:20:08.859Z,64.87
2022-12-31T13:22:48.285Z,64.84
2022-12-31T13:25:34.967Z,64.66
2022-12-31T13:28:10.005Z,65.41
2022-12-31T13:30:49.237Z,65.17
2022-12-31T13:33:25.590Z,64.94
2022-12-31T13:35:59.850Z,65.15
2022-12-31T13:38:50.824Z,66.26
2022-12-31T13:41:39.804Z,66.56
2022-12-31T13:44:55.149Z,66.75
2022-12-31T13:47:40.730Z,67.72
2022-12-31T13:50:42.663Z,68.26
2022-12-31T13:53:20.636Z,68.07
2022-12-31T13:56:01.842Z,67.70
2022-12-31T13:58:53.096Z,67.65
2022-12-31T14:01:40.550Z,66.80
2022-12-31T14:04:25.152Z,67.04
2022-12-31T14:07:12.413Z,66.39
2022-12-31T14:09:39.007Z,66.09
2022-12-31T14:12:43.192Z,65.68
2022-12-31T14:15:33.316Z,66.26
2022-12-31T14:18:52.678Z,65.59
2022-12-31T14:22:02.662Z,66.12
2022-12-31T14:24:46.401Z,65.57
2022-12-31T14:27:34.684Z,65.51
2022-12-31T14:30:11.415Z,65.68
2022-12-31T14:33:21.375Z,65.63
2022-12-31T14:35:57.863Z,66.18
2022-12-31T14:39:07.451Z,65.88
2022-12-31T14:41:46.915Z,65.63
2022-12-31T14:45:05.236Z,66.06
2022-12-31T14:48:04.714Z,66.49
2022-12-31T14:50:34.566Z,66.84
2022-12-31T14:53:03.658Z,66.52
2022-12-31T14:55:33.968Z,66.46
2022-12-31T14:58:28.406Z,66.64
2022-12-31T15:01:04.315Z,66.23
2022-12-31T15:03:30.869Z,66.44
2022-12-31T15:06:24.712Z,66.20
2022-12-31T15:09:20.417Z,66.41
2022-12-31T15:12:08.370Z,66.44
2022-12-31T15:15:03.917Z,66.92
2022-12-31T15:17:57.281Z,67.06
2022-12-31T15:20:47.980Z,67.47
2022-12-31T15:23:44.776Z,67.45
2022-12-31T15:26:28.330Z,67.30
2022-12-31T15:29:03.905Z,67.26
2022-12-31T15:31:35.267Z,67.29
2022-12-31T15:34:23.448Z,67.02
2022-12-31T15:37:00.749Z,67.37
2022-12-31T15:39:32.901Z,67.43
2022-12-31T15:42:36.854Z,67.36
2022-12-31T15:45:03.901Z,67.25
2022-12-31T15:47:38.652Z,67.61
2022-12-31T15:50:18.799Z,67.59
2022-12-31T15:52:53.699Z,67.32
2022-12-31T15:55:50.896Z,67.49
2022-12-31T15:58:25.090Z,67.39
2022-12-31T16:01:15.557Z,67.18
2022-12-31T16:03:59.497Z,67.26
2022-12-31T16:06:30.320Z,67.45
2022-12-31T16:08:57.668Z,67.48
2022-12-31T16:11:24.945Z,67.07
2022-12-31T16:13:56.684Z,67.02
2022-12-31T16:16:26.591Z,66.87
2022-12-31T16:18:53.992Z,66.97
2022-12-31T16:21:34.325Z,67.12
2022-12-31T16:24:23.110Z,67.46
2022-12-31T16:26:54.945Z,67.58
2022-12-31T16:29:24.039Z,67.26
2022-12-31T16:31:53.735Z,67.56
2022-12-31T16:34:25.465Z,67.23
2022-12-31T16:37:02.262Z,67.10
2022-12-31T16:39:58.829Z,67.39
2022-12-31T16:42:29.228Z,67.11
2022-12-31T16:44:57.506Z,67.45
2022-12-31T16:47:31.057Z,67.29
2022-12-31T16:50:21.869Z,66.93
2022-12-31T16:52:57.785Z,66.95
2022-12-31T16:55:28.664Z,66.75
2022-12-31T16:58:14.669Z,67.37
2022-12-31T17:00:42.900Z,67.69
2022-12-31T17:03:25.122Z,67.38
2022-12-31T17:06:12.392Z,67.24
2022-12-31T17:08:45.970Z,67.39
2022-12-31T17:11:36.436Z,66.86
2022-12-31T17:14:05.619Z,67.23
2022-12-31T17:16:38.726Z,67.45
2022-12-31T17:19:05.844Z,66.82
2022-12-31T17:21:33.392Z,67.12
2022-12-31T17:24:07.171Z,66.69
2022-12-31T17:26:38.303Z,66.59
2022-12-31T17:29:05.811Z,66.35
2022-12-31T17:31:37.342Z,66.25
2022-12-31T17:34:22.199Z,66.27
2022-12-31T17:37:18.285Z,66.65
2022-12-31T17:39:54.180Z,66.70
2022-12-31T17:42:36.730Z,66.66
2022-12-31T17:45:15.403Z,66.75
2022-12-31T17:47:50.921Z,66.62
2022-12-31T17:50:26.895Z,66.48
2022-12-31T17:53:02.550Z,66.63
2022-12-31T17:55:29.473Z,66.60
2022-12-31T17:57:57.824Z,66.05
2022-12-31T18:00:27.419Z,66.23
2022-12-31T18:02:54.037Z,66.30
2022-12-31T18:05:24.347Z,65.99
2022-12-31T18:07:51.799Z,65.96
2022-12-31T18:10:23.951Z,66.01
2022-12-31T18:12:50.861Z,66.21
2022-12-31T18:15:21.903Z,66.09
2022-12-31T18:17:49.289Z,66.38
2022-12-31T18:20:16.358Z,66.20
2022-12-31T18:22:44.990Z,66.03
2022-12-31T18:25:21.142Z,65.78
2022-12-31T18:27:49.660Z,66.03
2022-12-31T18:30:16.884Z,65.86
2022-12-31T18:32:45.877Z,65.86
2022-12-31T18:36:06.603Z,65.55
2022-12-31T18:38:13.388Z,65.77
2022-12-31T18:40:44.231Z,65.60
2022-12-31T18:43:17.297Z,66.19
2022-12-31T18:45:46.255Z,66.00
2022-12-31T18:48:13.342Z,65.97
2022-12-31T18:50:40.962Z,66.09
2022-12-31T18:53:17.749Z,65.89
2022-12-31T18:55:54.655Z,65.54
2022-12-31T18:58:24.579Z,65.81
2022-12-31T19:00:52.223Z,65.52
2022-12-31T19:03:23.106Z,65.46
2022-12-31T19:05:51.180Z,65.36
2022-12-31T19:08:19.806Z,65.57
2022-12-31T19:10:48.273Z,65.12
2022-12-31T19:13:17.631Z,65.01
2022-12-31T19:15:53.008Z,65.12
2022-12-31T19:18:19.763Z,65.29
2022-12-31T19:20:46.861Z,64.98
2022-12-31T19:23:20.352Z,64.43
2022-12-31T19:25:49.274Z,64.77
2022-12-31T19:28:23.408Z,64.67
2022-12-31T19:30:50.564Z,64.72
2022-12-31T19:33:18.152Z,64.84
2022-12-31T19:35:45.580Z,64.91
2022-12-31T19:38:17.591Z,64.28
2022-12-31T19:40:44.349Z,64.34
2022-12-31T19:43:17.306Z,64.34
2022-12-31T19:45:45.280Z,64.67
2022-12-31T19:48:25.860Z,64.47
2022-12-31T19:50:56.974Z,64.62
2022-12-31T19:53:27.091Z,64.31
2022-12-31T19:55:54.121Z,63.86
2022-12-31T19:58:26.331Z,63.58
2022-12-31T20:01:02.022Z,63.58
2022-12-31T20:03:31.533Z,63.47
2022-12-31T20:06:08.702Z,63.01
2022-12-31T20:08:38.598Z,62.92
2022-12-31T20:11:21.409Z,62.43
2022-12-31T20:13:50.123Z,62.55
2022-12-31T20:16:20.009Z,62.49
2022-12-31T20:18:48.289Z,62.51
2022-12-31T20:21:19.288Z,62.50
2022-12-31T20:23:46.892Z,62.58
2022-12-31T20:26:14.345Z,62.11
2022-12-31T20:28:40.960Z,62.03
2022-12-31T20:31:15.533Z,62.02
2022-12-31T20:33:42.867Z,62.04
2022-12-31T20:36:13.701Z,61.94
2022-12-31T20:38:40.533Z,62.28
2022-12-31T20:41:20.096Z,61.59
2022-12-31T20:43:47.986Z,62.38
2022-12-31T20:46:25.296Z,61.86
2022-12-31T20:48:55.730Z,62.05
2022-12-31T20:51:23.908Z,62.27
2022-12-31T20:53:59.260Z,61.74
2022-12-31T20:56:29.614Z,61.59
2022-12-31T20:58:56.933Z,61.08
2022-12-31T21:01:25.481Z,60.96
2022-12-31T21:04:05.033Z,60.93
2022-12-31T21:06:33.628Z,60.67
2022-12-31T21:09:04.081Z,60.21
2022-12-31T21:11:49.523Z,60.30
2022-12-31T21:14:16.241Z,60.46
2022-12-31T21:16:42.784Z,60.38
2022-12-31T21:19:10.029Z,60.09
2022-12-31T21:21:37.249Z,60.58
2022-12-31T21:24:04.200Z,60.68
2022-12-31T21:26:30.821Z,60.55
2022-12-31T21:28:57.589Z,60.54
2022-12-31T21:31:24.184Z,60.32
2022-12-31T21:33:50.764Z,59.78
2022-12-31T21:36:17.319Z,59.59
2022-12-31T21:38:44.461Z,59.53
2022-12-31T21:41:34.934Z,59.71
2022-12-31T21:44:02.548Z,59.92
2022-12-31T21:46:29.418Z,59.68
2022-12-31T21:49:00.408Z,58.80
2022-12-31T21:51:28.635Z,59.32
2022-12-31T21:53:55.276Z,59.57
2022-12-31T21:56:22.699Z,59.93
2022-12-31T21:59:14.770Z,59.63
2022-12-31T22:02:01.610Z,59.47
2022-12-31T22:05:00.846Z,60.02
2022-12-31T22:07:15.228Z,60.19
2022-12-31T22:09:41.753Z,60.47
2022-12-31T22:12:08.256Z,60.81
2022-12-31T22:14:34.918Z,60.69
2022-12-31T22:17:01.364Z,61.00
2022-12-31T22:19:27.876Z,60.62
2022-12-31T22:21:54.359Z,60.55
2022-12-31T22:24:20.834Z,60.68
2022-12-31T22:26:47.354Z,60.96
2022-12-31T22:29:14.134Z,61.29
2022-12-31T22:31:40.777Z,61.17
2022-12-31T22:34:07.471Z,61.06
2022-12-31T22:36:33.961Z,60.69
2022-12-31T22:39:00.577Z,61.00
2022-12-31T22:41:28.247Z,60.82
2022-12-31T22:44:03.029Z,60.46
2022-12-31T22:46:30.153Z,59.72
2022-12-31T22:48:59.174Z,60.33
2022-12-31T22:51:30.526Z,60.18
2022-12-31T22:54:14.150Z,60.53
2022-12-31T22:56:40.867Z,60.38
2022-12-31T22:59:07.383Z,59.76
2022-12-31T23:01:34.357Z,59.91
2022-12-31T23:04:01.079Z,60.30
2022-12-31T23:06:28.683Z,60.55
2022-12-31T23:09:15.499Z,60.11
2022-12-31T23:11:43.200Z,60.28
2022-12-31T23:14:35.427Z,59.67
2022-12-31T23:17:29.474Z,59.49
2022-12-31T23:20:17.338Z,60.00
2022-12-31T23:23:02.526Z,59.88
2022-12-31T23:25:33.078Z,59.68
2022-12-31T23:27:59.586Z,59.81
2022-12-31T23:30:26.400Z,60.14
2022-12-31T23:32:52.869Z,60.16
2022-12-31T23:35:19.371Z,60.14
2022-12-31T23:37:45.861Z,60.30
2022-12-31T23:40:20.612Z,60.68
2022-12-31T23:42:48.079Z,60.17
2022-12-31T23:45:14.771Z,60.17
2022-12-31T23:47:41.401Z,60.43
2022-12-31T23:50:08.617Z,60.39
2022-12-31T23:52:35.283Z,60.19
2022-12-31T23:55:03.481Z,59.66
2022-12-31T23:57:30.036Z,59.59
2022-12-31T23:59:56.547Z,59.68
